sensor_id;sensor_type;location;lat;lon;timestamp;P1;durP1;ratioP1;P2;durP2;ratioP2
18387;SDS011;9320;50.256;19.026;2023-07-29T00:02:15;8.00;;;5.95;;
18387;SDS011;9320;50.256;19.026;2023-07-29T00:04:43;8.45;;;5.88;;
18387;SDS011;9320;50.256;19.026;2023-07-29T00:07:11;11.60;;;6.13;;
18387;SDS011;9320;50.256;19.026;2023-07-29T00:09:39;10.07;;;6.53;;
18387;SDS011;9320;50.256;19.026;2023-07-29T00:12:07;8.68;;;6.15;;
18387;SDS011;9320;50.256;19.026;2023-07-29T00:14:35;9.98;;;6.28;;
18387;SDS011;9320;50.256;19.026;2023-07-29T00:17:05;8.18;;;5.82;;
18387;SDS011;9320;50.256;19.026;2023-07-29T00:19:33;11.18;;;7.13;;
18387;SDS011;9320;50.256;19.026;2023-07-29T00:22:01;8.63;;;6.40;;
18387;SDS011;9320;50.256;19.026;2023-07-29T00:24:29;8.50;;;6.10;;
18387;SDS011;9320;50.256;19.026;2023-07-29T00:26:57;9.75;;;6.57;;
18387;SDS011;9320;50.256;19.026;2023-07-29T00:29:25;9.27;;;6.43;;
18387;SDS011;9320;50.256;19.026;2023-07-29T00:31:53;9.57;;;6.32;;
18387;SDS011;9320;50.256;19.026;2023-07-29T00:34:23;9.02;;;6.15;;
18387;SDS011;9320;50.256;19.026;2023-07-29T00:36:51;8.38;;;6.10;;
18387;SDS011;9320;50.256;19.026;2023-07-29T00:39:19;10.32;;;6.72;;
18387;SDS011;9320;50.256;19.026;2023-07-29T00:41:47;9.43;;;6.50;;
18387;SDS011;9320;50.256;19.026;2023-07-29T00:44:15;8.25;;;6.38;;
18387;SDS011;9320;50.256;19.026;2023-07-29T00:46:45;8.23;;;6.20;;
18387;SDS011;9320;50.256;19.026;2023-07-29T00:49:14;8.90;;;6.30;;
18387;SDS011;9320;50.256;19.026;2023-07-29T00:51:44;11.10;;;7.20;;
18387;SDS011;9320;50.256;19.026;2023-07-29T00:54:12;7.93;;;6.00;;
18387;SDS011;9320;50.256;19.026;2023-07-29T00:56:41;10.00;;;6.22;;
18387;SDS011;9320;50.256;19.026;2023-07-29T00:59:09;9.02;;;6.60;;
18387;SDS011;9320;50.256;19.026;2023-07-29T01:01:37;9.02;;;6.40;;
18387;SDS011;9320;50.256;19.026;2023-07-29T01:04:05;8.85;;;6.53;;
18387;SDS011;9320;50.256;19.026;2023-07-29T01:06:34;8.73;;;6.38;;
18387;SDS011;9320;50.256;19.026;2023-07-29T01:09:14;10.20;;;6.85;;
18387;SDS011;9320;50.256;19.026;2023-07-29T01:11:51;11.23;;;6.85;;
18387;SDS011;9320;50.256;19.026;2023-07-29T01:14:38;9.27;;;6.40;;
18387;SDS011;9320;50.256;19.026;2023-07-29T01:17:13;9.82;;;6.28;;
18387;SDS011;9320;50.256;19.026;2023-07-29T01:19:54;10.82;;;6.60;;
18387;SDS011;9320;50.256;19.026;2023-07-29T01:22:29;8.95;;;6.95;;
18387;SDS011;9320;50.256;19.026;2023-07-29T01:24:59;10.55;;;5.85;;
18387;SDS011;9320;50.256;19.026;2023-07-29T01:27:27;9.63;;;6.38;;
18387;SDS011;9320;50.256;19.026;2023-07-29T01:29:56;9.07;;;6.88;;
18387;SDS011;9320;50.256;19.026;2023-07-29T01:32:28;10.93;;;6.88;;
18387;SDS011;9320;50.256;19.026;2023-07-29T01:35:03;9.05;;;6.60;;
18387;SDS011;9320;50.256;19.026;2023-07-29T01:37:39;11.35;;;6.72;;
18387;SDS011;9320;50.256;19.026;2023-07-29T01:40:10;10.98;;;6.80;;
18387;SDS011;9320;50.256;19.026;2023-07-29T01:42:38;10.63;;;6.95;;
18387;SDS011;9320;50.256;19.026;2023-07-29T01:45:07;9.63;;;6.55;;
18387;SDS011;9320;50.256;19.026;2023-07-29T01:47:35;9.43;;;6.32;;
18387;SDS011;9320;50.256;19.026;2023-07-29T01:50:08;10.57;;;6.90;;
18387;SDS011;9320;50.256;19.026;2023-07-29T01:52:36;9.32;;;6.70;;
18387;SDS011;9320;50.256;19.026;2023-07-29T01:55:05;10.07;;;6.85;;
18387;SDS011;9320;50.256;19.026;2023-07-29T01:57:35;10.75;;;7.20;;
18387;SDS011;9320;50.256;19.026;2023-07-29T02:00:03;11.45;;;6.85;;
18387;SDS011;9320;50.256;19.026;2023-07-29T02:02:32;10.77;;;7.07;;
18387;SDS011;9320;50.256;19.026;2023-07-29T02:05:00;8.88;;;6.90;;
18387;SDS011;9320;50.256;19.026;2023-07-29T02:07:28;9.90;;;6.97;;
18387;SDS011;9320;50.256;19.026;2023-07-29T02:09:56;11.73;;;6.55;;
18387;SDS011;9320;50.256;19.026;2023-07-29T02:12:24;9.57;;;6.70;;
18387;SDS011;9320;50.256;19.026;2023-07-29T02:14:53;10.15;;;6.15;;
18387;SDS011;9320;50.256;19.026;2023-07-29T02:17:21;8.38;;;6.22;;
18387;SDS011;9320;50.256;19.026;2023-07-29T02:19:49;9.13;;;6.70;;
18387;SDS011;9320;50.256;19.026;2023-07-29T02:22:17;8.00;;;6.22;;
18387;SDS011;9320;50.256;19.026;2023-07-29T02:24:45;9.75;;;6.50;;
18387;SDS011;9320;50.256;19.026;2023-07-29T02:27:13;9.13;;;6.53;;
18387;SDS011;9320;50.256;19.026;2023-07-29T02:29:41;9.52;;;6.63;;
18387;SDS011;9320;50.256;19.026;2023-07-29T02:32:11;9.77;;;6.32;;
18387;SDS011;9320;50.256;19.026;2023-07-29T02:34:39;9.43;;;6.03;;
18387;SDS011;9320;50.256;19.026;2023-07-29T02:37:07;9.27;;;6.70;;
18387;SDS011;9320;50.256;19.026;2023-07-29T02:39:35;9.82;;;6.45;;
18387;SDS011;9320;50.256;19.026;2023-07-29T02:42:04;10.10;;;6.88;;
18387;SDS011;9320;50.256;19.026;2023-07-29T02:44:32;9.43;;;7.07;;
18387;SDS011;9320;50.256;19.026;2023-07-29T02:47:00;10.90;;;6.22;;
18387;SDS011;9320;50.256;19.026;2023-07-29T02:49:29;10.43;;;6.15;;
18387;SDS011;9320;50.256;19.026;2023-07-29T02:51:57;9.60;;;6.72;;
18387;SDS011;9320;50.256;19.026;2023-07-29T02:54:25;9.95;;;6.88;;
18387;SDS011;9320;50.256;19.026;2023-07-29T02:56:53;8.10;;;6.18;;
18387;SDS011;9320;50.256;19.026;2023-07-29T02:59:21;12.30;;;6.78;;
18387;SDS011;9320;50.256;19.026;2023-07-29T03:01:49;10.30;;;6.57;;
18387;SDS011;9320;50.256;19.026;2023-07-29T03:04:17;10.73;;;7.00;;
18387;SDS011;9320;50.256;19.026;2023-07-29T03:06:47;8.50;;;6.32;;
18387;SDS011;9320;50.256;19.026;2023-07-29T03:09:15;10.30;;;6.18;;
18387;SDS011;9320;50.256;19.026;2023-07-29T03:11:43;8.32;;;6.60;;
18387;SDS011;9320;50.256;19.026;2023-07-29T03:14:12;8.82;;;6.47;;
18387;SDS011;9320;50.256;19.026;2023-07-29T03:16:40;11.93;;;7.00;;
18387;SDS011;9320;50.256;19.026;2023-07-29T03:19:08;11.20;;;6.75;;
18387;SDS011;9320;50.256;19.026;2023-07-29T03:21:37;12.35;;;7.15;;
18387;SDS011;9320;50.256;19.026;2023-07-29T03:24:06;10.02;;;6.60;;
18387;SDS011;9320;50.256;19.026;2023-07-29T03:26:34;9.63;;;6.50;;
18387;SDS011;9320;50.256;19.026;2023-07-29T03:29:02;9.40;;;6.55;;
18387;SDS011;9320;50.256;19.026;2023-07-29T03:31:30;9.07;;;6.38;;
18387;SDS011;9320;50.256;19.026;2023-07-29T03:33:58;9.73;;;7.05;;
18387;SDS011;9320;50.256;19.026;2023-07-29T03:36:26;9.80;;;6.88;;
18387;SDS011;9320;50.256;19.026;2023-07-29T03:38:54;10.35;;;6.38;;
18387;SDS011;9320;50.256;19.026;2023-07-29T03:41:24;9.43;;;6.70;;
18387;SDS011;9320;50.256;19.026;2023-07-29T03:43:52;10.88;;;7.22;;
18387;SDS011;9320;50.256;19.026;2023-07-29T03:46:20;9.13;;;6.70;;
18387;SDS011;9320;50.256;19.026;2023-07-29T03:48:48;11.88;;;7.20;;
18387;SDS011;9320;50.256;19.026;2023-07-29T03:51:16;9.32;;;6.20;;
18387;SDS011;9320;50.256;19.026;2023-07-29T03:53:44;8.43;;;6.40;;
18387;SDS011;9320;50.256;19.026;2023-07-29T03:56:12;10.38;;;7.00;;
18387;SDS011;9320;50.256;19.026;2023-07-29T03:58:42;10.40;;;6.50;;
18387;SDS011;9320;50.256;19.026;2023-07-29T04:01:10;11.40;;;7.00;;
18387;SDS011;9320;50.256;19.026;2023-07-29T04:03:38;7.63;;;5.80;;
18387;SDS011;9320;50.256;19.026;2023-07-29T04:06:06;15.10;;;6.78;;
18387;SDS011;9320;50.256;19.026;2023-07-29T04:08:34;8.98;;;6.63;;
18387;SDS011;9320;50.256;19.026;2023-07-29T04:11:03;9.95;;;6.70;;
18387;SDS011;9320;50.256;19.026;2023-07-29T04:13:31;10.40;;;7.05;;
18387;SDS011;9320;50.256;19.026;2023-07-29T04:16:00;12.40;;;6.95;;
18387;SDS011;9320;50.256;19.026;2023-07-29T04:18:28;9.63;;;6.93;;
18387;SDS011;9320;50.256;19.026;2023-07-29T04:20:56;13.32;;;6.63;;
18387;SDS011;9320;50.256;19.026;2023-07-29T04:23:24;8.40;;;6.43;;
18387;SDS011;9320;50.256;19.026;2023-07-29T04:25:52;8.77;;;5.75;;
18387;SDS011;9320;50.256;19.026;2023-07-29T04:28:20;10.10;;;6.25;;
18387;SDS011;9320;50.256;19.026;2023-07-29T04:30:48;8.02;;;5.97;;
18387;SDS011;9320;50.256;19.026;2023-07-29T04:33:18;8.88;;;6.10;;
18387;SDS011;9320;50.256;19.026;2023-07-29T04:35:46;7.80;;;6.00;;
18387;SDS011;9320;50.256;19.026;2023-07-29T04:38:14;7.53;;;5.80;;
18387;SDS011;9320;50.256;19.026;2023-07-29T04:40:42;8.27;;;5.82;;
18387;SDS011;9320;50.256;19.026;2023-07-29T04:43:10;9.68;;;6.47;;
18387;SDS011;9320;50.256;19.026;2023-07-29T04:45:41;7.70;;;6.10;;
18387;SDS011;9320;50.256;19.026;2023-07-29T04:48:10;7.75;;;5.70;;
18387;SDS011;9320;50.256;19.026;2023-07-29T04:50:39;8.63;;;6.05;;
18387;SDS011;9320;50.256;19.026;2023-07-29T04:53:07;7.45;;;5.57;;
18387;SDS011;9320;50.256;19.026;2023-07-29T04:55:35;6.57;;;5.30;;
18387;SDS011;9320;50.256;19.026;2023-07-29T04:58:03;8.40;;;5.35;;
18387;SDS011;9320;50.256;19.026;2023-07-29T05:00:31;6.78;;;5.13;;
18387;SDS011;9320;50.256;19.026;2023-07-29T05:03:00;6.68;;;4.75;;
18387;SDS011;9320;50.256;19.026;2023-07-29T05:05:28;7.78;;;5.38;;
18387;SDS011;9320;50.256;19.026;2023-07-29T05:07:58;8.27;;;4.57;;
18387;SDS011;9320;50.256;19.026;2023-07-29T05:10:26;6.38;;;4.75;;
18387;SDS011;9320;50.256;19.026;2023-07-29T05:12:54;7.25;;;5.00;;
18387;SDS011;9320;50.256;19.026;2023-07-29T05:15:22;8.95;;;5.00;;
18387;SDS011;9320;50.256;19.026;2023-07-29T05:17:50;7.85;;;4.70;;
18387;SDS011;9320;50.256;19.026;2023-07-29T05:20:18;7.90;;;4.63;;
18387;SDS011;9320;50.256;19.026;2023-07-29T05:22:46;6.65;;;4.90;;
18387;SDS011;9320;50.256;19.026;2023-07-29T05:25:15;6.05;;;4.63;;
18387;SDS011;9320;50.256;19.026;2023-07-29T05:27:43;6.78;;;4.82;;
18387;SDS011;9320;50.256;19.026;2023-07-29T05:30:11;7.25;;;5.03;;
18387;SDS011;9320;50.256;19.026;2023-07-29T05:32:39;7.22;;;4.70;;
18387;SDS011;9320;50.256;19.026;2023-07-29T05:35:07;7.03;;;4.85;;
18387;SDS011;9320;50.256;19.026;2023-07-29T05:37:37;6.30;;;4.70;;
18387;SDS011;9320;50.256;19.026;2023-07-29T05:40:06;8.70;;;4.57;;
18387;SDS011;9320;50.256;19.026;2023-07-29T05:42:37;7.80;;;4.97;;
18387;SDS011;9320;50.256;19.026;2023-07-29T05:45:05;6.45;;;4.72;;
18387;SDS011;9320;50.256;19.026;2023-07-29T05:47:34;6.32;;;4.68;;
18387;SDS011;9320;50.256;19.026;2023-07-29T05:50:02;7.57;;;4.85;;
18387;SDS011;9320;50.256;19.026;2023-07-29T05:52:31;8.18;;;5.40;;
18387;SDS011;9320;50.256;19.026;2023-07-29T05:54:59;7.95;;;5.10;;
18387;SDS011;9320;50.256;19.026;2023-07-29T05:57:27;8.38;;;4.85;;
18387;SDS011;9320;50.256;19.026;2023-07-29T05:59:57;6.90;;;5.03;;
18387;SDS011;9320;50.256;19.026;2023-07-29T06:02:25;7.25;;;5.32;;
18387;SDS011;9320;50.256;19.026;2023-07-29T06:04:53;7.80;;;5.20;;
18387;SDS011;9320;50.256;19.026;2023-07-29T06:07:21;8.18;;;5.60;;
18387;SDS011;9320;50.256;19.026;2023-07-29T06:09:49;7.50;;;5.32;;
18387;SDS011;9320;50.256;19.026;2023-07-29T06:12:17;8.00;;;5.45;;
18387;SDS011;9320;50.256;19.026;2023-07-29T06:14:45;9.15;;;5.28;;
18387;SDS011;9320;50.256;19.026;2023-07-29T06:17:15;9.43;;;5.35;;
18387;SDS011;9320;50.256;19.026;2023-07-29T06:19:43;7.97;;;5.47;;
18387;SDS011;9320;50.256;19.026;2023-07-29T06:22:11;7.35;;;4.88;;
18387;SDS011;9320;50.256;19.026;2023-07-29T06:24:39;9.18;;;5.25;;
18387;SDS011;9320;50.256;19.026;2023-07-29T06:27:07;9.13;;;4.80;;
18387;SDS011;9320;50.256;19.026;2023-07-29T06:29:35;7.05;;;5.28;;
18387;SDS011;9320;50.256;19.026;2023-07-29T06:32:03;6.38;;;5.00;;
18387;SDS011;9320;50.256;19.026;2023-07-29T06:34:33;6.45;;;5.20;;
18387;SDS011;9320;50.256;19.026;2023-07-29T06:37:01;5.63;;;5.03;;
18387;SDS011;9320;50.256;19.026;2023-07-29T06:39:29;7.28;;;5.68;;
18387;SDS011;9320;50.256;19.026;2023-07-29T06:41:57;7.03;;;5.30;;
18387;SDS011;9320;50.256;19.026;2023-07-29T06:44:25;8.95;;;5.20;;
18387;SDS011;9320;50.256;19.026;2023-07-29T06:46:53;7.35;;;5.05;;
18387;SDS011;9320;50.256;19.026;2023-07-29T06:49:21;10.80;;;5.40;;
18387;SDS011;9320;50.256;19.026;2023-07-29T06:51:51;7.18;;;4.60;;
18387;SDS011;9320;50.256;19.026;2023-07-29T06:54:19;6.32;;;5.32;;
18387;SDS011;9320;50.256;19.026;2023-07-29T06:56:51;5.03;;;4.53;;
18387;SDS011;9320;50.256;19.026;2023-07-29T06:59:20;5.68;;;5.00;;
18387;SDS011;9320;50.256;19.026;2023-07-29T07:01:48;5.90;;;5.30;;
18387;SDS011;9320;50.256;19.026;2023-07-29T07:04:16;6.50;;;5.25;;
18387;SDS011;9320;50.256;19.026;2023-07-29T07:06:44;5.80;;;5.20;;
18387;SDS011;9320;50.256;19.026;2023-07-29T07:09:13;6.05;;;5.40;;
18387;SDS011;9320;50.256;19.026;2023-07-29T07:11:41;8.00;;;5.57;;
18387;SDS011;9320;50.256;19.026;2023-07-29T07:14:09;5.82;;;5.25;;
18387;SDS011;9320;50.256;19.026;2023-07-29T07:16:37;6.43;;;5.05;;
18387;SDS011;9320;50.256;19.026;2023-07-29T07:19:06;6.97;;;5.50;;
18387;SDS011;9320;50.256;19.026;2023-07-29T07:21:34;5.78;;;5.07;;
18387;SDS011;9320;50.256;19.026;2023-07-29T07:24:02;7.07;;;4.95;;
18387;SDS011;9320;50.256;19.026;2023-07-29T07:26:32;5.80;;;5.20;;
18387;SDS011;9320;50.256;19.026;2023-07-29T07:29:00;5.75;;;4.93;;
18387;SDS011;9320;50.256;19.026;2023-07-29T07:31:32;6.85;;;4.80;;
18387;SDS011;9320;50.256;19.026;2023-07-29T07:34:01;6.35;;;5.25;;
18387;SDS011;9320;50.256;19.026;2023-07-29T07:36:30;5.45;;;4.95;;
18387;SDS011;9320;50.256;19.026;2023-07-29T07:38:58;7.40;;;5.40;;
18387;SDS011;9320;50.256;19.026;2023-07-29T07:41:26;6.55;;;5.28;;
18387;SDS011;9320;50.256;19.026;2023-07-29T07:43:55;5.70;;;5.10;;
18387;SDS011;9320;50.256;19.026;2023-07-29T07:46:23;6.95;;;4.35;;
18387;SDS011;9320;50.256;19.026;2023-07-29T07:48:51;5.15;;;4.45;;
18387;SDS011;9320;50.256;19.026;2023-07-29T07:51:19;5.43;;;4.38;;
18387;SDS011;9320;50.256;19.026;2023-07-29T07:53:48;4.75;;;4.35;;
18387;SDS011;9320;50.256;19.026;2023-07-29T07:56:16;5.13;;;4.60;;
18387;SDS011;9320;50.256;19.026;2023-07-29T07:58:44;4.57;;;4.18;;
18387;SDS011;9320;50.256;19.026;2023-07-29T08:01:13;4.82;;;4.40;;
18387;SDS011;9320;50.256;19.026;2023-07-29T08:03:42;6.15;;;4.50;;
18387;SDS011;9320;50.256;19.026;2023-07-29T08:06:10;4.68;;;4.28;;
18387;SDS011;9320;50.256;19.026;2023-07-29T08:08:38;4.63;;;4.22;;
18387;SDS011;9320;50.256;19.026;2023-07-29T08:11:06;4.50;;;4.10;;
18387;SDS011;9320;50.256;19.026;2023-07-29T08:13:34;5.65;;;4.10;;
18387;SDS011;9320;50.256;19.026;2023-07-29T08:16:02;4.88;;;4.40;;
18387;SDS011;9320;50.256;19.026;2023-07-29T08:21:01;4.43;;;4.03;;
18387;SDS011;9320;50.256;19.026;2023-07-29T08:23:30;4.45;;;4.05;;
18387;SDS011;9320;50.256;19.026;2023-07-29T08:26:00;10.35;;;4.53;;
18387;SDS011;9320;50.256;19.026;2023-07-29T08:28:30;4.72;;;4.20;;
18387;SDS011;9320;50.256;19.026;2023-07-29T08:31:00;4.68;;;4.10;;
18387;SDS011;9320;50.256;19.026;2023-07-29T08:33:28;6.53;;;4.50;;
18387;SDS011;9320;50.256;19.026;2023-07-29T08:35:59;5.00;;;3.90;;
18387;SDS011;9320;50.256;19.026;2023-07-29T08:38:27;5.30;;;4.60;;
18387;SDS011;9320;50.256;19.026;2023-07-29T08:40:57;6.68;;;4.50;;
18387;SDS011;9320;50.256;19.026;2023-07-29T08:43:31;4.85;;;4.38;;
18387;SDS011;9320;50.256;19.026;2023-07-29T08:46:00;6.30;;;4.25;;
18387;SDS011;9320;50.256;19.026;2023-07-29T08:48:30;4.43;;;4.03;;
18387;SDS011;9320;50.256;19.026;2023-07-29T08:51:02;6.85;;;4.20;;
18387;SDS011;9320;50.256;19.026;2023-07-29T08:53:31;4.72;;;4.32;;
18387;SDS011;9320;50.256;19.026;2023-07-29T08:56:00;8.07;;;4.30;;
18387;SDS011;9320;50.256;19.026;2023-07-29T08:58:28;4.80;;;4.30;;
18387;SDS011;9320;50.256;19.026;2023-07-29T09:00:56;6.05;;;4.18;;
18387;SDS011;9320;50.256;19.026;2023-07-29T09:03:25;6.03;;;4.32;;
18387;SDS011;9320;50.256;19.026;2023-07-29T09:05:53;4.50;;;4.10;;
18387;SDS011;9320;50.256;19.026;2023-07-29T09:08:25;5.15;;;4.40;;
18387;SDS011;9320;50.256;19.026;2023-07-29T09:10:54;5.93;;;4.38;;
18387;SDS011;9320;50.256;19.026;2023-07-29T09:13:22;5.07;;;4.57;;
18387;SDS011;9320;50.256;19.026;2023-07-29T09:15:52;7.38;;;5.70;;
18387;SDS011;9320;50.256;19.026;2023-07-29T09:18:21;8.45;;;6.00;;
18387;SDS011;9320;50.256;19.026;2023-07-29T09:20:50;10.60;;;5.80;;
18387;SDS011;9320;50.256;19.026;2023-07-29T09:23:18;7.10;;;5.22;;
18387;SDS011;9320;50.256;19.026;2023-07-29T09:25:47;5.00;;;4.50;;
18387;SDS011;9320;50.256;19.026;2023-07-29T09:28:15;7.22;;;4.60;;
18387;SDS011;9320;50.256;19.026;2023-07-29T09:30:45;4.57;;;4.10;;
18387;SDS011;9320;50.256;19.026;2023-07-29T09:33:14;4.75;;;3.85;;
18387;SDS011;9320;50.256;19.026;2023-07-29T09:35:42;4.03;;;3.63;;
18387;SDS011;9320;50.256;19.026;2023-07-29T09:38:14;4.70;;;4.30;;
18387;SDS011;9320;50.256;19.026;2023-07-29T09:40:42;4.13;;;3.72;;
18387;SDS011;9320;50.256;19.026;2023-07-29T09:43:13;6.05;;;4.10;;
18387;SDS011;9320;50.256;19.026;2023-07-29T09:45:45;3.85;;;3.45;;
18387;SDS011;9320;50.256;19.026;2023-07-29T09:48:14;8.10;;;3.92;;
18387;SDS011;9320;50.256;19.026;2023-07-29T09:50:42;3.88;;;3.47;;
18387;SDS011;9320;50.256;19.026;2023-07-29T09:53:10;4.85;;;3.72;;
18387;SDS011;9320;50.256;19.026;2023-07-29T09:55:38;4.03;;;3.63;;
18387;SDS011;9320;50.256;19.026;2023-07-29T09:58:06;4.55;;;3.95;;
18387;SDS011;9320;50.256;19.026;2023-07-29T10:00:36;5.30;;;4.13;;
18387;SDS011;9320;50.256;19.026;2023-07-29T10:03:05;9.32;;;4.40;;
18387;SDS011;9320;50.256;19.026;2023-07-29T10:05:34;7.20;;;3.80;;
18387;SDS011;9320;50.256;19.026;2023-07-29T10:08:02;4.40;;;3.70;;
18387;SDS011;9320;50.256;19.026;2023-07-29T10:10:31;5.53;;;3.47;;
18387;SDS011;9320;50.256;19.026;2023-07-29T10:12:59;5.95;;;3.78;;
18387;SDS011;9320;50.256;19.026;2023-07-29T10:15:28;3.83;;;3.45;;
18387;SDS011;9320;50.256;19.026;2023-07-29T10:18:00;4.15;;;3.75;;
18387;SDS011;9320;50.256;19.026;2023-07-29T10:20:30;3.90;;;3.30;;
18387;SDS011;9320;50.256;19.026;2023-07-29T10:22:59;4.45;;;3.58;;
18387;SDS011;9320;50.256;19.026;2023-07-29T10:25:30;3.97;;;3.45;;
18387;SDS011;9320;50.256;19.026;2023-07-29T10:28:06;4.97;;;3.65;;
18387;SDS011;9320;50.256;19.026;2023-07-29T10:30:36;6.88;;;3.70;;
18387;SDS011;9320;50.256;19.026;2023-07-29T10:33:05;3.80;;;3.50;;
18387;SDS011;9320;50.256;19.026;2023-07-29T10:35:34;4.25;;;3.85;;
18387;SDS011;9320;50.256;19.026;2023-07-29T10:38:03;4.13;;;3.78;;
18387;SDS011;9320;50.256;19.026;2023-07-29T10:40:45;4.43;;;4.03;;
18387;SDS011;9320;50.256;19.026;2023-07-29T10:43:18;6.22;;;4.10;;
18387;SDS011;9320;50.256;19.026;2023-07-29T10:45:51;5.53;;;4.32;;
18387;SDS011;9320;50.256;19.026;2023-07-29T10:48:44;7.45;;;4.55;;
18387;SDS011;9320;50.256;19.026;2023-07-29T10:51:26;5.50;;;4.40;;
18387;SDS011;9320;50.256;19.026;2023-07-29T10:53:57;5.10;;;4.50;;
18387;SDS011;9320;50.256;19.026;2023-07-29T10:56:26;5.80;;;4.50;;
18387;SDS011;9320;50.256;19.026;2023-07-29T10:58:59;7.03;;;4.78;;
18387;SDS011;9320;50.256;19.026;2023-07-29T11:01:30;5.75;;;4.05;;
18387;SDS011;9320;50.256;19.026;2023-07-29T11:09:56;4.72;;;4.20;;
18387;SDS011;9320;50.256;19.026;2023-07-29T11:15:19;4.60;;;4.20;;
18387;SDS011;9320;50.256;19.026;2023-07-29T11:17:50;4.72;;;4.30;;
18387;SDS011;9320;50.256;19.026;2023-07-29T11:20:19;6.25;;;4.22;;
18387;SDS011;9320;50.256;19.026;2023-07-29T11:22:50;4.28;;;3.88;;
18387;SDS011;9320;50.256;19.026;2023-07-29T11:25:21;4.75;;;4.20;;
18387;SDS011;9320;50.256;19.026;2023-07-29T11:27:50;4.32;;;3.90;;
18387;SDS011;9320;50.256;19.026;2023-07-29T11:30:20;4.25;;;3.90;;
18387;SDS011;9320;50.256;19.026;2023-07-29T11:32:49;4.18;;;3.80;;
18387;SDS011;9320;50.256;19.026;2023-07-29T11:35:18;4.50;;;4.10;;
18387;SDS011;9320;50.256;19.026;2023-07-29T11:37:46;5.05;;;4.53;;
18387;SDS011;9320;50.256;19.026;2023-07-29T11:40:17;4.90;;;4.35;;
18387;SDS011;9320;50.256;19.026;2023-07-29T11:42:46;4.50;;;4.10;;
18387;SDS011;9320;50.256;19.026;2023-07-29T11:45:17;4.50;;;4.10;;
18387;SDS011;9320;50.256;19.026;2023-07-29T11:47:45;4.88;;;4.35;;
18387;SDS011;9320;50.256;19.026;2023-07-29T11:50:14;4.55;;;4.15;;
18387;SDS011;9320;50.256;19.026;2023-07-29T11:52:43;5.68;;;4.10;;
18387;SDS011;9320;50.256;19.026;2023-07-29T11:55:12;4.45;;;4.05;;
18387;SDS011;9320;50.256;19.026;2023-07-29T11:57:43;4.85;;;3.97;;
18387;SDS011;9320;50.256;19.026;2023-07-29T12:00:11;4.78;;;4.35;;
18387;SDS011;9320;50.256;19.026;2023-07-29T12:02:42;4.70;;;4.30;;
18387;SDS011;9320;50.256;19.026;2023-07-29T12:05:12;4.90;;;4.50;;
18387;SDS011;9320;50.256;19.026;2023-07-29T12:07:42;5.13;;;4.28;;
18387;SDS011;9320;50.256;19.026;2023-07-29T12:10:11;4.90;;;4.50;;
18387;SDS011;9320;50.256;19.026;2023-07-29T12:12:45;5.60;;;4.28;;
18387;SDS011;9320;50.256;19.026;2023-07-29T12:15:13;4.57;;;4.18;;
18387;SDS011;9320;50.256;19.026;2023-07-29T12:17:52;5.43;;;4.93;;
18387;SDS011;9320;50.256;19.026;2023-07-29T12:20:23;4.50;;;4.10;;
18387;SDS011;9320;50.256;19.026;2023-07-29T12:22:52;7.90;;;4.15;;
18387;SDS011;9320;50.256;19.026;2023-07-29T12:25:20;4.93;;;4.53;;
18387;SDS011;9320;50.256;19.026;2023-07-29T12:27:50;5.05;;;4.30;;
18387;SDS011;9320;50.256;19.026;2023-07-29T12:30:20;4.55;;;4.15;;
18387;SDS011;9320;50.256;19.026;2023-07-29T12:32:49;4.85;;;4.40;;
18387;SDS011;9320;50.256;19.026;2023-07-29T12:35:17;5.07;;;4.57;;
18387;SDS011;9320;50.256;19.026;2023-07-29T12:37:45;4.60;;;4.20;;
18387;SDS011;9320;50.256;19.026;2023-07-29T12:40:22;5.18;;;4.68;;
18387;SDS011;9320;50.256;19.026;2023-07-29T12:42:52;4.70;;;4.30;;
18387;SDS011;9320;50.256;19.026;2023-07-29T12:45:21;4.60;;;4.22;;
18387;SDS011;9320;50.256;19.026;2023-07-29T12:47:52;4.07;;;3.78;;
18387;SDS011;9320;50.256;19.026;2023-07-29T12:50:21;5.88;;;4.40;;
18387;SDS011;9320;50.256;19.026;2023-07-29T12:52:49;4.70;;;4.30;;
18387;SDS011;9320;50.256;19.026;2023-07-29T12:55:17;5.75;;;4.50;;
18387;SDS011;9320;50.256;19.026;2023-07-29T12:57:49;4.40;;;4.00;;
18387;SDS011;9320;50.256;19.026;2023-07-29T13:00:19;4.65;;;4.22;;
18387;SDS011;9320;50.256;19.026;2023-07-29T13:02:47;5.10;;;4.70;;
18387;SDS011;9320;50.256;19.026;2023-07-29T13:05:16;4.88;;;4.47;;
18387;SDS011;9320;50.256;19.026;2023-07-29T13:07:44;5.47;;;4.70;;
18387;SDS011;9320;50.256;19.026;2023-07-29T13:10:13;4.22;;;3.92;;
18387;SDS011;9320;50.256;19.026;2023-07-29T13:12:41;4.55;;;4.15;;
18387;SDS011;9320;50.256;19.026;2023-07-29T13:15:09;4.57;;;4.10;;
18387;SDS011;9320;50.256;19.026;2023-07-29T13:17:39;4.95;;;4.30;;
18387;SDS011;9320;50.256;19.026;2023-07-29T13:20:08;4.97;;;3.70;;
18387;SDS011;9320;50.256;19.026;2023-07-29T13:22:36;4.20;;;3.80;;
18387;SDS011;9320;50.256;19.026;2023-07-29T13:25:04;3.90;;;3.60;;
18387;SDS011;9320;50.256;19.026;2023-07-29T13:27:32;4.25;;;3.83;;
18387;SDS011;9320;50.256;19.026;2023-07-29T13:30:00;4.40;;;4.00;;
18387;SDS011;9320;50.256;19.026;2023-07-29T13:32:28;4.55;;;4.15;;
18387;SDS011;9320;50.256;19.026;2023-07-29T13:34:58;5.38;;;4.03;;
18387;SDS011;9320;50.256;19.026;2023-07-29T13:37:26;4.50;;;4.10;;
18387;SDS011;9320;50.256;19.026;2023-07-29T13:39:54;4.50;;;4.10;;
18387;SDS011;9320;50.256;19.026;2023-07-29T13:42:22;4.45;;;4.05;;
18387;SDS011;9320;50.256;19.026;2023-07-29T13:44:50;5.55;;;4.20;;
18387;SDS011;9320;50.256;19.026;2023-07-29T13:47:18;4.93;;;4.22;;
18387;SDS011;9320;50.256;19.026;2023-07-29T13:49:46;5.75;;;4.22;;
18387;SDS011;9320;50.256;19.026;2023-07-29T13:52:15;7.32;;;4.15;;
18387;SDS011;9320;50.256;19.026;2023-07-29T13:54:43;4.20;;;3.80;;
18387;SDS011;9320;50.256;19.026;2023-07-29T13:57:11;6.45;;;4.00;;
18387;SDS011;9320;50.256;19.026;2023-07-29T13:59:39;4.13;;;3.80;;
18387;SDS011;9320;50.256;19.026;2023-07-29T14:02:07;6.53;;;4.20;;
18387;SDS011;9320;50.256;19.026;2023-07-29T14:04:35;6.05;;;4.22;;
18387;SDS011;9320;50.256;19.026;2023-07-29T14:07:04;4.57;;;4.18;;
18387;SDS011;9320;50.256;19.026;2023-07-29T14:09:34;4.32;;;3.88;;
18387;SDS011;9320;50.256;19.026;2023-07-29T14:12:02;4.32;;;3.90;;
18387;SDS011;9320;50.256;19.026;2023-07-29T14:14:31;4.47;;;4.07;;
18387;SDS011;9320;50.256;19.026;2023-07-29T14:16:59;4.00;;;3.70;;
18387;SDS011;9320;50.256;19.026;2023-07-29T14:19:27;4.00;;;3.70;;
18387;SDS011;9320;50.256;19.026;2023-07-29T14:21:55;5.43;;;3.90;;
18387;SDS011;9320;50.256;19.026;2023-07-29T14:24:23;4.75;;;4.32;;
18387;SDS011;9320;50.256;19.026;2023-07-29T14:26:52;4.97;;;4.00;;
18387;SDS011;9320;50.256;19.026;2023-07-29T14:29:20;4.57;;;4.18;;
18387;SDS011;9320;50.256;19.026;2023-07-29T14:31:49;4.57;;;4.18;;
18387;SDS011;9320;50.256;19.026;2023-07-29T14:34:17;4.47;;;4.07;;
18387;SDS011;9320;50.256;19.026;2023-07-29T14:36:45;4.53;;;4.13;;
18387;SDS011;9320;50.256;19.026;2023-07-29T14:39:13;4.03;;;3.72;;
18387;SDS011;9320;50.256;19.026;2023-07-29T14:41:41;5.30;;;4.05;;
18387;SDS011;9320;50.256;19.026;2023-07-29T14:44:10;4.00;;;3.70;;
18387;SDS011;9320;50.256;19.026;2023-07-29T14:46:38;4.43;;;3.88;;
18387;SDS011;9320;50.256;19.026;2023-07-29T14:49:06;6.97;;;3.80;;
18387;SDS011;9320;50.256;19.026;2023-07-29T14:51:34;4.05;;;3.75;;
18387;SDS011;9320;50.256;19.026;2023-07-29T14:54:03;4.10;;;3.60;;
18387;SDS011;9320;50.256;19.026;2023-07-29T14:56:31;5.18;;;4.15;;
18387;SDS011;9320;50.256;19.026;2023-07-29T14:59:00;4.20;;;3.80;;
18387;SDS011;9320;50.256;19.026;2023-07-29T15:01:29;5.13;;;3.58;;
18387;SDS011;9320;50.256;19.026;2023-07-29T15:03:58;4.40;;;4.00;;
18387;SDS011;9320;50.256;19.026;2023-07-29T15:06:26;4.25;;;3.85;;
18387;SDS011;9320;50.256;19.026;2023-07-29T15:08:54;4.55;;;4.15;;